createdAt,value
2023-02-09T00:02:12.909Z,103016.59
2023-02-09T00:04:39.584Z,103019.25
2023-02-09T00:07:06.191Z,103018.25
2023-02-09T00:09:35.119Z,103018.22
2023-02-09T00:12:20.222Z,103016.34
2023-02-09T00:14:46.653Z,102998.75
2023-02-09T00:17:13.542Z,103004.75
2023-02-09T00:19:40.216Z,103011.53
2023-02-09T00:22:06.912Z,103010.31
2023-02-09T00:24:33.486Z,103006.63
2023-02-09T00:27:00.045Z,103010.19
2023-02-09T00:29:27.567Z,103013.56
2023-02-09T00:31:54.271Z,103011.03
2023-02-09T00:34:20.914Z,103010.09
2023-02-09T00:36:47.558Z,103004.00
2023-02-09T00:39:14.157Z,103004.75
2023-02-09T00:41:59.564Z,103000.31
2023-02-09T00:44:26.234Z,102991.38
2023-02-09T00:46:52.820Z,102988.69
2023-02-09T00:49:20.016Z,102985.00
2023-02-09T00:51:47.145Z,102986.66
2023-02-09T00:54:14.587Z,102979.72
2023-02-09T00:56:41.144Z,102985.88
2023-02-09T00:59:07.671Z,102982.00
2023-02-09T01:01:34.413Z,102987.03
2023-02-09T01:04:01.051Z,102981.72
2023-02-09T01:06:27.708Z,102983.41
2023-02-09T01:08:54.586Z,102979.03
2023-02-09T01:11:22.960Z,102976.31
2023-02-09T01:13:49.544Z,102972.75
2023-02-09T01:16:18.359Z,102975.28
2023-02-09T01:18:45.216Z,102970.72
2023-02-09T01:21:18.530Z,102973.19
2023-02-09T01:23:46.324Z,102967.97
2023-02-09T01:26:15.862Z,102970.47
2023-02-09T01:28:43.009Z,102961.84
2023-02-09T01:31:38.893Z,102957.34
2023-02-09T01:34:05.742Z,102956.50
2023-02-09T01:36:33.618Z,102960.81
2023-02-09T01:39:02.203Z,102947.69
2023-02-09T01:41:29.156Z,102942.28
2023-02-09T01:44:10.907Z,102942.25
2023-02-09T01:46:40.170Z,102938.63
2023-02-09T01:49:13.470Z,102936.88
2023-02-09T01:51:52.418Z,102926.38
2023-02-09T01:54:23.193Z,102927.13
2023-02-09T01:56:55.203Z,102929.66
2023-02-09T01:59:21.868Z,102918.22
2023-02-09T02:01:48.547Z,102918.94
2023-02-09T02:04:15.840Z,102924.94
2023-02-09T02:06:42.788Z,102913.53
2023-02-09T02:09:13.270Z,102911.09
2023-02-09T02:11:44.167Z,102907.75
2023-02-09T02:14:29.876Z,102908.91
2023-02-09T02:16:58.042Z,102910.72
2023-02-09T02:19:45.541Z,102917.59
2023-02-09T02:22:36.454Z,102919.28
2023-02-09T02:25:02.912Z,102913.28
2023-02-09T02:27:47.848Z,102908.34
2023-02-09T02:30:20.582Z,102905.84
2023-02-09T02:33:06.684Z,102904.28
2023-02-09T02:35:43.432Z,102904.38
2023-02-09T02:38:22.036Z,102906.22
2023-02-09T02:40:57.735Z,102907.72
2023-02-09T02:43:33.908Z,102902.56
2023-02-09T02:46:30.749Z,102902.50
2023-02-09T02:49:10.072Z,102899.16
2023-02-09T02:51:43.543Z,102903.53
2023-02-09T02:54:17.139Z,102900.84
2023-02-09T02:56:49.032Z,102900.00
2023-02-09T02:59:20.985Z,102889.97
2023-02-09T03:01:57.511Z,102896.69
2023-02-09T03:04:28.313Z,102903.75
2023-02-09T03:06:54.873Z,102900.91
2023-02-09T03:09:21.433Z,102900.75
2023-02-09T03:11:51.775Z,102909.53
2023-02-09T03:14:39.344Z,102901.63
2023-02-09T03:17:39.820Z,102910.31
2023-02-09T03:20:13.750Z,102909.28
2023-02-09T03:22:45.245Z,102905.63
2023-02-09T03:25:31.611Z,102902.88
2023-02-09T03:28:09.719Z,102901.88
2023-02-09T03:30:37.828Z,102901.94
2023-02-09T03:33:06.067Z,102897.59
2023-02-09T03:35:39.257Z,102903.75
2023-02-09T03:38:08.586Z,102908.13
2023-02-09T03:40:35.342Z,102907.09
2023-02-09T03:43:01.887Z,102913.22
2023-02-09T03:45:32.780Z,102909.75
2023-02-09T04:32:07.368Z,102901.84
2023-02-09T04:34:33.968Z,102899.97
2023-02-09T04:37:00.544Z,102911.19
2023-02-09T04:39:27.150Z,102913.69
2023-02-09T04:41:55.828Z,102912.69
2023-02-09T04:44:22.384Z,102914.47
2023-02-09T04:46:50.033Z,102908.53
2023-02-09T04:49:16.660Z,102907.06
2023-02-09T04:51:43.214Z,102900.25
2023-02-09T04:54:09.861Z,102910.88
2023-02-09T04:56:38.173Z,102902.31
2023-02-09T04:59:23.760Z,102902.31
2023-02-09T05:01:50.194Z,102907.56
2023-02-09T05:04:16.761Z,102909.31
2023-02-09T05:06:43.324Z,102898.06
2023-02-09T05:09:10.072Z,102905.00
2023-02-09T05:11:36.638Z,102898.75
2023-02-09T05:14:03.222Z,102900.41
2023-02-09T05:16:29.877Z,102907.28
2023-02-09T05:18:56.456Z,102903.44
2023-02-09T05:21:22.968Z,102908.78
2023-02-09T05:23:49.558Z,102909.50
2023-02-09T05:26:16.121Z,102911.97
2023-02-09T05:28:42.696Z,102911.81
2023-02-09T05:31:09.309Z,102909.16
2023-02-09T05:33:35.872Z,102906.47
2023-02-09T05:36:09.053Z,102907.44
2023-02-09T05:38:36.362Z,102911.63
2023-02-09T05:41:09.792Z,102907.84
2023-02-09T05:43:37.164Z,102912.78
2023-02-09T05:46:07.062Z,102913.19
2023-02-09T05:48:34.719Z,102913.19
2023-02-09T05:51:01.466Z,102926.38
2023-02-09T05:53:27.996Z,102921.34
2023-02-09T05:55:54.523Z,102924.00
2023-02-09T05:58:21.072Z,102927.50
2023-02-09T06:00:47.907Z,102928.28
2023-02-09T06:03:14.631Z,102929.13
2023-02-09T06:05:44.983Z,102928.28
2023-02-09T06:08:11.544Z,102928.44
2023-02-09T06:10:38.192Z,102925.88
2023-02-09T06:13:05.745Z,102920.66
2023-02-09T06:15:32.501Z,102928.44
2023-02-09T06:17:59.029Z,102921.44
2023-02-09T06:20:25.597Z,102924.06
2023-02-09T06:22:52.170Z,102924.19
2023-02-09T06:25:18.829Z,102919.88
2023-02-09T06:27:45.473Z,102919.22
2023-02-09T06:30:12.517Z,102918.81
2023-02-09T06:32:39.100Z,102917.38
2023-02-09T06:35:06.025Z,102913.34
2023-02-09T06:37:32.863Z,102917.13
2023-02-09T06:39:59.445Z,102911.25
2023-02-09T06:42:43.821Z,102914.06
2023-02-09T06:45:15.454Z,102916.03
2023-02-09T06:47:46.086Z,102916.16
2023-02-09T06:50:14.626Z,102921.63
2023-02-09T06:52:41.220Z,102907.88
2023-02-09T06:55:08.124Z,102908.13
2023-02-09T06:57:37.747Z,102910.13
2023-02-09T07:00:07.193Z,102906.00
2023-02-09T07:02:33.949Z,102903.75
2023-02-09T07:05:00.725Z,102903.19
2023-02-09T07:07:27.370Z,102910.53
2023-02-09T07:09:53.939Z,102910.78
2023-02-09T07:12:20.548Z,102911.88
2023-02-09T07:14:47.065Z,102913.00
2023-02-09T07:17:13.599Z,102912.44
2023-02-09T07:19:40.123Z,102910.94
2023-02-09T07:22:06.783Z,102909.44
2023-02-09T07:24:33.352Z,102899.28
2023-02-09T07:26:59.945Z,102899.63
2023-02-09T07:29:26.529Z,102900.84
2023-02-09T07:31:53.152Z,102907.28
2023-02-09T07:34:19.696Z,102897.13
2023-02-09T07:36:47.988Z,102893.06
2023-02-09T07:39:15.262Z,102891.66
2023-02-09T07:41:42.171Z,102898.97
2023-02-09T07:44:12.243Z,102899.28
2023-02-09T07:46:38.878Z,102892.56
2023-02-09T07:49:05.458Z,102901.66
2023-02-09T07:51:34.080Z,102887.94
2023-02-09T07:54:00.949Z,102889.38
2023-02-09T07:56:28.542Z,102895.97
2023-02-09T07:58:55.847Z,102887.53
2023-02-09T08:01:23.376Z,102894.00
2023-02-09T08:03:51.155Z,102883.75
2023-02-09T08:06:42.429Z,102885.78
2023-02-09T08:09:11.033Z,102886.94
2023-02-09T08:11:43.921Z,102880.19
2023-02-09T08:14:20.480Z,102885.75
2023-02-09T08:16:48.807Z,102880.69
2023-02-09T08:19:21.053Z,102869.41
2023-02-09T08:21:49.668Z,102868.69
2023-02-09T08:24:18.381Z,102865.31
2023-02-09T08:26:45.613Z,102853.97
2023-02-09T08:29:12.855Z,102863.72
2023-02-09T08:31:40.588Z,102860.28
2023-02-09T08:34:07.308Z,102858.59
2023-02-09T08:36:34.375Z,102860.38
2023-02-09T08:39:01.027Z,102869.22
2023-02-09T08:41:27.600Z,102858.66
2023-02-09T08:43:54.225Z,102860.41
2023-02-09T08:46:20.977Z,102855.13
2023-02-09T08:48:47.755Z,102856.84
2023-02-09T08:51:15.668Z,102853.28
2023-02-09T08:53:43.390Z,102856.72
2023-02-09T08:56:10.017Z,102849.63
2023-02-09T08:58:36.636Z,102854.00
2023-02-09T09:01:03.899Z,102855.72
2023-02-09T09:03:33.236Z,102854.75
2023-02-09T09:06:02.157Z,102856.38
2023-02-09T09:08:30.726Z,102848.38
2023-02-09T09:10:57.708Z,102850.00
2023-02-09T09:13:24.994Z,102848.88
2023-02-09T09:15:52.705Z,102856.50
2023-02-09T09:18:19.415Z,102850.78
2023-02-09T09:20:45.981Z,102852.06
2023-02-09T09:23:12.855Z,102845.28
2023-02-09T09:25:40.551Z,102850.69
2023-02-09T09:28:08.634Z,102849.44
2023-02-09T09:30:36.242Z,102841.69
2023-02-09T09:33:04.169Z,102852.56
2023-02-09T09:35:31.715Z,102848.34
2023-02-09T09:37:58.650Z,102848.44
2023-02-09T09:40:32.478Z,102857.13
2023-02-09T09:43:03.101Z,102848.94
2023-02-09T09:45:33.356Z,102842.63
2023-02-09T09:48:00.319Z,102846.06
2023-02-09T09:50:26.846Z,102844.50
2023-02-09T09:53:08.506Z,102849.84
2023-02-09T09:55:36.963Z,102852.94
2023-02-09T09:58:05.710Z,102856.22
2023-02-09T10:00:38.755Z,102847.25
2023-02-09T10:03:15.257Z,102831.94
2023-02-09T10:05:43.554Z,102846.16
2023-02-09T10:08:10.239Z,102834.53
2023-02-09T10:10:55.013Z,102838.81
2023-02-09T10:13:25.298Z,102837.75
2023-02-09T10:15:56.676Z,102825.13
2023-02-09T10:18:26.583Z,102825.50
2023-02-09T10:20:56.760Z,102819.88
2023-02-09T10:23:26.625Z,102808.84
2023-02-09T10:25:59.270Z,102810.03
2023-02-09T10:28:29.205Z,102807.88
2023-02-09T10:30:59.681Z,102808.28
2023-02-09T10:33:28.558Z,102797.50
2023-02-09T10:36:03.166Z,102799.91
2023-02-09T10:38:33.256Z,102795.75
2023-02-09T10:41:01.072Z,102784.03
2023-02-09T10:43:33.865Z,102787.28
2023-02-09T10:46:03.751Z,102778.94
2023-02-09T10:48:40.847Z,102770.34
2023-02-09T10:51:17.516Z,102774.38
2023-02-09T10:54:03.612Z,102766.66
2023-02-09T10:56:42.315Z,102757.41
2023-02-09T10:59:18.935Z,102761.50
2023-02-09T11:01:55.154Z,102760.97
2023-02-09T11:04:29.689Z,102748.91
2023-02-09T11:07:01.077Z,102741.66
2023-02-09T11:09:41.480Z,102744.13
2023-02-09T11:12:12.524Z,102737.94
2023-02-09T11:14:42.557Z,102735.41
2023-02-09T11:17:12.142Z,102725.19
2023-02-09T11:20:03.875Z,102735.41
2023-02-09T11:22:39.320Z,102732.56
2023-02-09T11:25:24.909Z,102723.47
2023-02-09T11:28:04.251Z,102715.06
2023-02-09T11:31:00.927Z,102718.31
2023-02-09T11:33:39.327Z,102704.88
2023-02-09T11:36:14.953Z,102703.00
2023-02-09T11:38:52.934Z,102694.59
2023-02-09T11:41:48.985Z,102703.94
2023-02-09T11:44:40.648Z,102693.22
2023-02-09T11:47:14.381Z,102692.50
2023-02-09T11:49:46.156Z,102686.72
2023-02-09T11:52:19.706Z,102676.63
2023-02-09T11:54:50.367Z,102676.25
2023-02-09T11:57:34.420Z,102672.91
2023-02-09T12:00:05.155Z,102678.88
2023-02-09T12:02:47.656Z,102679.16
2023-02-09T12:05:17.975Z,102688.94
2023-02-09T12:08:25.665Z,102680.53
2023-02-09T12:11:15.639Z,102674.66
2023-02-09T12:14:15.450Z,102673.75
2023-02-09T12:16:47.361Z,102665.88
2023-02-09T12:19:38.044Z,102667.50
2023-02-09T12:22:35.048Z,102662.06
2023-02-09T12:25:36.570Z,102660.19
2023-02-09T12:28:08.801Z,102659.28
2023-02-09T12:30:40.999Z,102653.47
2023-02-09T12:33:16.589Z,102640.47
2023-02-09T12:35:43.903Z,102651.81
2023-02-09T12:38:19.196Z,102650.84
2023-02-09T12:41:02.659Z,102653.88
2023-02-09T12:43:31.946Z,102651.31
2023-02-09T12:46:31.081Z,102644.72
2023-02-09T12:49:12.785Z,102648.06
2023-02-09T12:51:54.115Z,102641.66
2023-02-09T12:54:42.554Z,102643.50
2023-02-09T12:57:14.955Z,102631.38
2023-02-09T12:59:50.671Z,102616.63
2023-02-09T13:02:35.692Z,102632.16
2023-02-09T13:05:12.959Z,102619.06
2023-02-09T13:07:54.309Z,102611.00
2023-02-09T13:10:42.496Z,102613.97
2023-02-09T13:13:12.168Z,102618.25
2023-02-09T13:16:00.272Z,102613.09
2023-02-09T13:18:41.747Z,102611.50
2023-02-09T13:21:47.835Z,102607.16
2023-02-09T13:24:22.609Z,102604.44
2023-02-09T13:26:54.923Z,102602.41
2023-02-09T13:29:31.981Z,102600.22
2023-02-09T13:32:01.689Z,102609.88
2023-02-09T13:34:46.464Z,102592.19
2023-02-09T13:37:31.734Z,102600.81
2023-02-09T13:40:13.332Z,102600.03
2023-02-09T13:43:03.294Z,102588.31
2023-02-09T13:45:30.741Z,102593.34
2023-02-09T13:48:00.567Z,102597.34
2023-02-09T13:50:28.418Z,102595.88
2023-02-09T13:53:08.140Z,102596.91
2023-02-09T13:55:39.882Z,102588.44
2023-02-09T13:58:08.966Z,102594.66
2023-02-09T14:00:43.931Z,102585.28
2023-02-09T14:03:19.966Z,102587.09
2023-02-09T14:05:56.888Z,102589.66
2023-02-09T14:08:25.544Z,102581.22
2023-02-09T14:11:02.584Z,102594.75
2023-02-09T14:13:42.600Z,102585.78
2023-02-09T14:16:14.245Z,102592.06
2023-02-09T14:18:45.498Z,102586.31
2023-02-09T14:21:13.496Z,102587.59
2023-02-09T14:23:42.892Z,102579.78
2023-02-09T14:26:15.585Z,102580.91
2023-02-09T14:28:46.715Z,102575.69
2023-02-09T14:31:20.643Z,102573.38
2023-02-09T14:33:55.332Z,102572.75
2023-02-09T14:36:23.549Z,102568.22
2023-02-09T14:38:51.703Z,102568.84
2023-02-09T14:41:19.578Z,102572.81
2023-02-09T14:43:58.035Z,102572.94
2023-02-09T14:46:24.786Z,102578.56
2023-02-09T14:48:55.669Z,102580.38
2023-02-09T14:51:23.024Z,102575.72
2023-02-09T14:53:50.202Z,102578.28
2023-02-09T14:56:42.904Z,102581.72
2023-02-09T14:59:19.684Z,102586.06
2023-02-09T15:01:50.416Z,102588.91
2023-02-09T15:04:17.171Z,102589.91
2023-02-09T15:06:47.091Z,102586.41
2023-02-09T15:09:33.486Z,102587.34
2023-02-09T15:12:06.069Z,102593.66
2023-02-09T15:14:45.677Z,102596.09
2023-02-09T15:17:17.869Z,102598.41
2023-02-09T15:19:45.452Z,102595.22
2023-02-09T15:22:15.059Z,102597.78
2023-02-09T15:24:47.389Z,102593.63
2023-02-09T15:27:18.788Z,102592.66
2023-02-09T15:29:45.414Z,102587.09
2023-02-09T15:32:17.873Z,102599.63
2023-02-09T15:34:44.706Z,102593.81
2023-02-09T15:37:21.014Z,102595.03
2023-02-09T15:39:50.458Z,102599.84
2023-02-09T15:42:37.280Z,102598.34
2023-02-09T15:45:32.618Z,102602.03
2023-02-09T15:47:59.574Z,102602.72
2023-02-09T15:50:28.513Z,102601.06
2023-02-09T15:52:57.572Z,102614.97
2023-02-09T15:55:28.009Z,102614.09
2023-02-09T15:57:55.545Z,102607.28
2023-02-09T16:00:25.518Z,102617.16
2023-02-09T16:02:56.666Z,102616.34
2023-02-09T16:05:27.308Z,102610.72
2023-02-09T16:07:55.060Z,102620.56
2023-02-09T16:10:26.044Z,102621.81
2023-02-09T16:12:53.565Z,102620.75
2023-02-09T16:15:23.059Z,102626.59
2023-02-09T16:17:50.686Z,102622.34
2023-02-09T16:20:19.133Z,102621.75
2023-02-09T16:22:48.816Z,102625.69
2023-02-09T16:25:22.085Z,102615.94
2023-02-09T16:27:49.873Z,102609.25
2023-02-09T16:30:28.220Z,102613.78
2023-02-09T16:32:55.456Z,102616.28
2023-02-09T16:35:24.434Z,102617.72
2023-02-09T16:37:52.740Z,102618.63
2023-02-09T16:40:33.566Z,102620.47
2023-02-09T16:43:01.553Z,102620.53
2023-02-09T16:45:31.219Z,102627.63
2023-02-09T16:47:59.810Z,102622.47
2023-02-09T16:50:33.476Z,102631.50
2023-02-09T16:53:02.893Z,102625.50
2023-02-09T16:55:32.961Z,102629.25
2023-02-09T16:58:02.201Z,102627.59
2023-02-09T17:00:35.271Z,102624.97
2023-02-09T17:03:14.058Z,102617.03
2023-02-09T17:05:49.073Z,102624.09
2023-02-09T17:08:32.111Z,102620.56
2023-02-09T17:10:59.789Z,102630.34
2023-02-09T17:13:26.350Z,102631.31
2023-02-09T17:15:55.856Z,102621.63
2023-02-09T17:18:34.850Z,102624.31
2023-02-09T17:21:08.774Z,102621.72
2023-02-09T17:23:36.973Z,102617.28
2023-02-09T17:26:03.953Z,102612.00
2023-02-09T17:28:30.608Z,102609.34
2023-02-09T17:31:02.752Z,102607.63
2023-02-09T17:33:33.372Z,102612.94
2023-02-09T17:38:47.348Z,102618.28
2023-02-09T17:41:40.741Z,102615.66
2023-02-09T17:44:44.589Z,102614.75
2023-02-09T17:47:19.941Z,102608.63
2023-02-09T17:49:47.054Z,102609.50
2023-02-09T17:52:18.677Z,102613.88
2023-02-09T17:54:45.939Z,102609.47
2023-02-09T17:57:14.972Z,102603.31
2023-02-09T17:59:42.180Z,102610.34
2023-02-09T18:02:17.518Z,102612.09
2023-02-09T18:04:44.589Z,102610.34
2023-02-09T18:07:12.775Z,102607.72
2023-02-09T18:09:39.489Z,102610.34
2023-02-09T18:12:27.114Z,102613.84
2023-02-09T18:14:54.119Z,102611.19
2023-02-09T18:17:20.688Z,102615.59
2023-02-09T18:19:47.229Z,102610.28
2023-02-09T18:22:17.381Z,102605.91
2023-02-09T18:24:44.261Z,102618.16
2023-02-09T18:27:17.878Z,102612.00
2023-02-09T18:29:44.651Z,102610.28
2023-02-09T18:32:14.653Z,102618.13
2023-02-09T18:34:41.483Z,102625.97
2023-02-09T18:37:08.254Z,102619.75
2023-02-09T18:39:36.753Z,102625.00
2023-02-09T18:42:03.362Z,102628.50
2023-02-09T18:44:32.198Z,102624.09
2023-02-09T18:47:02.420Z,102626.75
2023-02-09T18:49:29.470Z,102628.50
2023-02-09T18:51:57.034Z,102624.09
2023-02-09T18:54:23.702Z,102620.56
2023-02-09T18:56:50.373Z,102621.47
2023-02-09T18:59:17.840Z,102624.16
2023-02-09T19:01:45.187Z,102625.03
2023-02-09T19:04:12.759Z,102619.75
2023-02-09T19:06:39.500Z,102617.09
2023-02-09T19:09:06.180Z,102607.41
2023-02-09T19:11:32.773Z,102604.75
2023-02-09T19:14:17.773Z,102610.94
2023-02-09T19:16:44.417Z,102610.03
2023-02-09T19:19:12.574Z,102613.53
2023-02-09T19:21:39.149Z,102616.16
2023-02-09T19:24:05.923Z,102616.06
2023-02-09T19:26:32.453Z,102607.19
2023-02-09T19:28:59.090Z,102612.31
2023-02-09T19:31:25.836Z,102614.06
2023-02-09T19:33:57.210Z,102608.84
2023-02-09T19:36:25.120Z,102600.06
2023-02-09T19:38:51.756Z,102606.16
2023-02-09T19:41:20.340Z,102607.91
2023-02-09T19:43:46.898Z,102612.22
2023-02-09T19:46:13.544Z,102598.19
2023-02-09T19:48:41.163Z,102605.16
2023-02-09T19:51:08.534Z,102609.56
2023-02-09T19:53:35.502Z,102606.03
2023-02-09T19:56:02.277Z,102615.63
2023-02-09T19:58:29.054Z,102616.53
2023-02-09T20:00:56.189Z,102622.63
2023-02-09T20:03:23.927Z,102624.34
2023-02-09T20:05:51.202Z,102621.66
2023-02-09T20:08:20.215Z,102620.75
2023-02-09T20:10:47.205Z,102633.00
2023-02-09T20:13:15.003Z,102629.44
2023-02-09T20:15:43.680Z,102629.38
2023-02-09T20:18:11.482Z,102634.59
2023-02-09T20:20:42.975Z,102631.06
2023-02-09T20:23:09.909Z,102631.97
2023-02-09T20:25:36.562Z,102624.06
2023-02-09T20:28:03.650Z,102630.19
2023-02-09T20:30:31.274Z,102631.88
2023-02-09T20:32:57.839Z,102628.31
2023-02-09T20:35:24.507Z,102627.41
2023-02-09T20:37:52.913Z,102617.81
2023-02-09T20:40:19.623Z,102625.66
2023-02-09T20:43:04.470Z,102620.34
2023-02-09T20:45:49.830Z,102612.50
2023-02-09T20:48:17.503Z,102602.91
2023-02-09T20:50:45.524Z,102606.34
2023-02-09T20:53:12.396Z,102606.31
2023-02-09T20:55:39.003Z,102607.13
2023-02-09T20:58:05.648Z,102607.03
2023-02-09T21:00:32.344Z,102606.09
2023-02-09T21:02:58.971Z,102606.94
2023-02-09T21:05:25.573Z,102599.84
2023-02-09T21:07:52.153Z,102611.19
2023-02-09T21:10:18.793Z,102618.88
2023-02-09T21:12:48.672Z,102610.94
2023-02-09T21:15:15.324Z,102620.47
2023-02-09T21:17:47.513Z,102617.78
2023-02-09T21:20:17.559Z,102620.38
2023-02-09T21:22:44.144Z,102612.34
2023-02-09T21:25:10.932Z,102612.25
2023-02-09T21:27:37.724Z,102608.66
2023-02-09T21:30:05.032Z,102608.50
2023-02-09T21:32:34.863Z,102610.25
2023-02-09T21:35:01.629Z,102614.63
2023-02-09T21:37:32.018Z,102610.25
2023-02-09T21:40:02.870Z,102616.38
2023-02-09T21:42:32.231Z,102617.31
2023-02-09T21:44:59.844Z,102611.22
2023-02-09T21:47:27.072Z,102620.91
2023-02-09T21:49:53.794Z,102617.28
2023-02-09T21:52:20.669Z,102615.34
2023-02-09T21:54:47.356Z,102616.88
2023-02-09T21:57:14.155Z,102613.19
2023-02-09T21:59:40.767Z,102605.16
2023-02-09T22:02:07.660Z,102600.81
2023-02-09T22:04:34.349Z,102613.09
2023-02-09T22:07:01.001Z,102609.50
2023-02-09T22:09:28.058Z,102610.31
2023-02-09T22:11:54.661Z,102613.81
2023-02-09T22:14:21.212Z,102604.00
2023-02-09T22:16:48.189Z,102614.41
2023-02-09T22:19:14.830Z,102609.16
2023-02-09T22:21:41.460Z,102609.09
2023-02-09T22:24:08.139Z,102605.47
2023-02-09T22:26:34.700Z,102606.19
2023-02-09T22:29:01.225Z,102604.41
2023-02-09T22:31:27.824Z,102602.50
2023-02-09T22:33:54.902Z,102599.78
2023-02-09T22:36:22.001Z,102604.00
2023-02-09T22:38:48.716Z,102609.09
2023-02-09T22:41:23.874Z,102607.09
2023-02-09T22:43:52.619Z,102610.44
2023-02-09T22:46:21.909Z,102610.31
2023-02-09T22:48:57.361Z,102605.06
2023-02-09T22:51:26.957Z,102611.25
2023-02-09T22:53:53.809Z,102606.09
2023-02-09T22:56:20.658Z,102602.78
2023-02-09T22:58:47.670Z,102603.56
2023-02-09T23:01:14.947Z,102601.84
2023-02-09T23:03:41.868Z,102601.00
2023-02-09T23:06:11.934Z,102606.19
2023-02-09T23:08:38.465Z,102604.44
2023-02-09T23:11:07.476Z,102602.63
2023-02-09T23:13:35.483Z,102607.72
2023-02-09T23:16:14.475Z,102601.56
2023-02-09T23:18:49.443Z,102598.13
2023-02-09T23:21:17.191Z,102591.09
2023-02-09T23:23:44.219Z,102594.59
2023-02-09T23:26:11.301Z,102592.88
2023-02-09T23:28:38.335Z,102587.66
2023-02-09T23:31:10.792Z,102586.84
2023-02-09T23:33:38.334Z,102586.84
2023-02-09T23:36:09.984Z,102584.13
2023-02-09T23:38:36.731Z,102588.47
2023-02-09T23:41:14.700Z,102583.31
2023-02-09T23:43:41.780Z,102580.59
2023-02-09T23:46:12.212Z,102590.97
2023-02-09T23:48:39.072Z,102596.16
2023-02-09T23:51:08.799Z,102589.94
2023-02-09T23:53:35.889Z,102594.22
2023-02-09T23:56:06.011Z,102601.19
2023-02-09T23:58:44.268Z,102589.03
